sensor_id;sensor_type;location;lat;lon;timestamp;temperature;humidity
11540;DHT22;5826;54.756;9.192;2024-01-30T00:01:17;7.70;99.90
11540;DHT22;5826;54.756;9.192;2024-01-30T00:03:43;7.70;99.90
11540;DHT22;5826;54.756;9.192;2024-01-30T00:06:09;7.70;99.90
11540;DHT22;5826;54.756;9.192;2024-01-30T00:08:34;7.70;99.90
11540;DHT22;5826;54.756;9.192;2024-01-30T00:11:00;7.70;99.90
11540;DHT22;5826;54.756;9.192;2024-01-30T00:13:26;7.70;99.90
11540;DHT22;5826;54.756;9.192;2024-01-30T00:15:51;7.70;99.90
11540;DHT22;5826;54.756;9.192;2024-01-30T00:18:17;7.70;99.90
11540;DHT22;5826;54.756;9.192;2024-01-30T00:20:44;7.70;99.90
11540;DHT22;5826;54.756;9.192;2024-01-30T00:23:09;7.70;99.90
11540;DHT22;5826;54.756;9.192;2024-01-30T00:25:34;7.70;99.90
11540;DHT22;5826;54.756;9.192;2024-01-30T00:28:00;7.70;99.90
11540;DHT22;5826;54.756;9.192;2024-01-30T00:30:25;7.80;99.90
11540;DHT22;5826;54.756;9.192;2024-01-30T00:32:51;7.80;99.90
11540;DHT22;5826;54.756;9.192;2024-01-30T00:35:17;7.80;99.90
11540;DHT22;5826;54.756;9.192;2024-01-30T00:37:42;7.80;99.90
11540;DHT22;5826;54.756;9.192;2024-01-30T00:40:08;7.80;99.90
11540;DHT22;5826;54.756;9.192;2024-01-30T00:42:35;7.80;99.90
11540;DHT22;5826;54.756;9.192;2024-01-30T00:45:01;7.80;99.90
11540;DHT22;5826;54.756;9.192;2024-01-30T00:47:27;7.80;99.90
11540;DHT22;5826;54.756;9.192;2024-01-30T00:49:52;7.80;99.90
11540;DHT22;5826;54.756;9.192;2024-01-30T00:52:18;7.80;99.90
11540;DHT22;5826;54.756;9.192;2024-01-30T00:54:43;7.90;99.90
11540;DHT22;5826;54.756;9.192;2024-01-30T00:57:09;7.80;99.90
11540;DHT22;5826;54.756;9.192;2024-01-30T00:59:34;7.80;99.90
11540;DHT22;5826;54.756;9.192;2024-01-30T01:02:00;7.80;99.90
11540;DHT22;5826;54.756;9.192;2024-01-30T01:04:25;7.90;99.90
11540;DHT22;5826;54.756;9.192;2024-01-30T01:06:52;7.80;99.90
11540;DHT22;5826;54.756;9.192;2024-01-30T01:09:17;7.80;99.90
11540;DHT22;5826;54.756;9.192;2024-01-30T01:11:43;7.80;99.90
11540;DHT22;5826;54.756;9.192;2024-01-30T01:14:08;7.80;99.90
11540;DHT22;5826;54.756;9.192;2024-01-30T01:16:34;7.90;99.90
11540;DHT22;5826;54.756;9.192;2024-01-30T01:18:59;7.90;99.90
11540;DHT22;5826;54.756;9.192;2024-01-30T01:21:25;7.80;99.90
11540;DHT22;5826;54.756;9.192;2024-01-30T01:23:51;7.80;99.90
11540;DHT22;5826;54.756;9.192;2024-01-30T01:26:16;7.90;99.90
11540;DHT22;5826;54.756;9.192;2024-01-30T01:28:42;7.80;99.90
11540;DHT22;5826;54.756;9.192;2024-01-30T01:31:08;7.90;99.90
11540;DHT22;5826;54.756;9.192;2024-01-30T01:33:34;7.90;99.90
11540;DHT22;5826;54.756;9.192;2024-01-30T01:36:00;7.80;99.90
11540;DHT22;5826;54.756;9.192;2024-01-30T01:38:28;7.90;99.90
11540;DHT22;5826;54.756;9.192;2024-01-30T01:40:53;7.90;99.90
11540;DHT22;5826;54.756;9.192;2024-01-30T01:43:19;7.90;99.90
11540;DHT22;5826;54.756;9.192;2024-01-30T01:45:45;7.90;99.90
11540;DHT22;5826;54.756;9.192;2024-01-30T01:48:11;7.80;99.90
11540;DHT22;5826;54.756;9.192;2024-01-30T01:50:38;7.80;99.90
11540;DHT22;5826;54.756;9.192;2024-01-30T01:53:03;7.90;99.90
11540;DHT22;5826;54.756;9.192;2024-01-30T01:55:30;7.90;99.90
11540;DHT22;5826;54.756;9.192;2024-01-30T01:57:57;7.90;99.90
11540;DHT22;5826;54.756;9.192;2024-01-30T02:00:23;7.90;99.90
11540;DHT22;5826;54.756;9.192;2024-01-30T02:02:50;7.90;99.90
11540;DHT22;5826;54.756;9.192;2024-01-30T02:05:16;7.90;99.90
11540;DHT22;5826;54.756;9.192;2024-01-30T02:07:42;7.90;99.90
11540;DHT22;5826;54.756;9.192;2024-01-30T02:10:08;7.90;99.90
11540;DHT22;5826;54.756;9.192;2024-01-30T02:12:35;7.90;99.90
11540;DHT22;5826;54.756;9.192;2024-01-30T02:15:00;7.90;99.90
11540;DHT22;5826;54.756;9.192;2024-01-30T02:17:26;7.90;99.90
11540;DHT22;5826;54.756;9.192;2024-01-30T02:19:52;7.90;99.90
11540;DHT22;5826;54.756;9.192;2024-01-30T02:22:18;7.90;99.90
11540;DHT22;5826;54.756;9.192;2024-01-30T02:24:44;7.80;99.90
11540;DHT22;5826;54.756;9.192;2024-01-30T02:27:10;7.80;99.90
11540;DHT22;5826;54.756;9.192;2024-01-30T02:29:35;7.80;99.90
11540;DHT22;5826;54.756;9.192;2024-01-30T02:32:01;7.80;99.90
11540;DHT22;5826;54.756;9.192;2024-01-30T02:34:27;7.80;99.90
11540;DHT22;5826;54.756;9.192;2024-01-30T02:36:52;7.80;99.90
11540;DHT22;5826;54.756;9.192;2024-01-30T02:39:18;7.70;99.90
11540;DHT22;5826;54.756;9.192;2024-01-30T02:41:43;7.70;99.90
11540;DHT22;5826;54.756;9.192;2024-01-30T02:44:09;7.80;99.90
11540;DHT22;5826;54.756;9.192;2024-01-30T02:46:34;7.80;99.90
11540;DHT22;5826;54.756;9.192;2024-01-30T02:49:00;7.80;99.90
11540;DHT22;5826;54.756;9.192;2024-01-30T02:51:25;7.80;99.90
11540;DHT22;5826;54.756;9.192;2024-01-30T02:53:51;7.80;99.90
11540;DHT22;5826;54.756;9.192;2024-01-30T02:56:16;7.80;99.90
11540;DHT22;5826;54.756;9.192;2024-01-30T02:58:42;7.80;99.90
11540;DHT22;5826;54.756;9.192;2024-01-30T03:01:07;7.80;99.90
11540;DHT22;5826;54.756;9.192;2024-01-30T03:03:33;7.80;99.90
11540;DHT22;5826;54.756;9.192;2024-01-30T03:06:01;7.80;99.90
11540;DHT22;5826;54.756;9.192;2024-01-30T03:08:27;7.80;99.90
11540;DHT22;5826;54.756;9.192;2024-01-30T03:10:52;7.80;99.90
11540;DHT22;5826;54.756;9.192;2024-01-30T03:13:18;7.80;99.90
11540;DHT22;5826;54.756;9.192;2024-01-30T03:15:43;7.80;99.90
11540;DHT22;5826;54.756;9.192;2024-01-30T03:18:09;7.80;99.90
11540;DHT22;5826;54.756;9.192;2024-01-30T03:20:34;7.70;99.90
11540;DHT22;5826;54.756;9.192;2024-01-30T03:23:00;7.70;99.90
11540;DHT22;5826;54.756;9.192;2024-01-30T03:25:26;7.70;99.90
11540;DHT22;5826;54.756;9.192;2024-01-30T03:27:51;7.70;99.90
11540;DHT22;5826;54.756;9.192;2024-01-30T03:30:17;7.70;99.90
11540;DHT22;5826;54.756;9.192;2024-01-30T03:32:43;7.70;99.90
11540;DHT22;5826;54.756;9.192;2024-01-30T03:35:09;7.70;99.90
11540;DHT22;5826;54.756;9.192;2024-01-30T03:37:35;7.70;99.90
11540;DHT22;5826;54.756;9.192;2024-01-30T03:40:01;7.70;99.90
11540;DHT22;5826;54.756;9.192;2024-01-30T03:42:27;7.70;99.90
11540;DHT22;5826;54.756;9.192;2024-01-30T03:44:52;7.60;99.90
11540;DHT22;5826;54.756;9.192;2024-01-30T03:47:19;7.60;99.90
11540;DHT22;5826;54.756;9.192;2024-01-30T03:49:45;7.60;99.90
11540;DHT22;5826;54.756;9.192;2024-01-30T03:52:10;7.60;99.90
11540;DHT22;5826;54.756;9.192;2024-01-30T03:54:36;7.60;99.90
11540;DHT22;5826;54.756;9.192;2024-01-30T03:57:01;7.60;99.90
11540;DHT22;5826;54.756;9.192;2024-01-30T03:59:27;8.30;99.90
11540;DHT22;5826;54.756;9.192;2024-01-30T04:01:53;7.50;99.90
11540;DHT22;5826;54.756;9.192;2024-01-30T04:04:18;7.50;99.90
11540;DHT22;5826;54.756;9.192;2024-01-30T04:06:45;7.50;99.90
11540;DHT22;5826;54.756;9.192;2024-01-30T04:09:11;7.50;99.90
11540;DHT22;5826;54.756;9.192;2024-01-30T04:11:38;7.50;99.90
11540;DHT22;5826;54.756;9.192;2024-01-30T04:14:04;7.50;99.90
11540;DHT22;5826;54.756;9.192;2024-01-30T04:16:29;7.50;99.90
11540;DHT22;5826;54.756;9.192;2024-01-30T04:18:56;7.50;99.90
11540;DHT22;5826;54.756;9.192;2024-01-30T04:21:21;7.50;99.90
11540;DHT22;5826;54.756;9.192;2024-01-30T04:23:47;7.50;99.90
11540;DHT22;5826;54.756;9.192;2024-01-30T04:26:13;7.50;99.90
11540;DHT22;5826;54.756;9.192;2024-01-30T04:28:41;7.50;99.90
11540;DHT22;5826;54.756;9.192;2024-01-30T04:31:07;7.50;99.90
11540;DHT22;5826;54.756;9.192;2024-01-30T04:33:32;7.50;99.90
11540;DHT22;5826;54.756;9.192;2024-01-30T04:35:57;7.50;99.90
11540;DHT22;5826;54.756;9.192;2024-01-30T04:38:23;7.50;99.90
11540;DHT22;5826;54.756;9.192;2024-01-30T04:40:48;7.40;99.90
11540;DHT22;5826;54.756;9.192;2024-01-30T04:43:14;7.40;99.90
11540;DHT22;5826;54.756;9.192;2024-01-30T04:45:41;7.50;99.90
11540;DHT22;5826;54.756;9.192;2024-01-30T04:48:06;7.40;99.90
11540;DHT22;5826;54.756;9.192;2024-01-30T04:50:32;7.40;99.90
11540;DHT22;5826;54.756;9.192;2024-01-30T04:52:57;7.40;99.90
11540;DHT22;5826;54.756;9.192;2024-01-30T04:55:23;7.40;99.90
11540;DHT22;5826;54.756;9.192;2024-01-30T04:57:49;7.30;99.90
11540;DHT22;5826;54.756;9.192;2024-01-30T05:00:14;7.40;99.90
11540;DHT22;5826;54.756;9.192;2024-01-30T05:02:40;7.30;99.90
11540;DHT22;5826;54.756;9.192;2024-01-30T05:05:06;7.30;99.90
11540;DHT22;5826;54.756;9.192;2024-01-30T05:07:31;7.30;99.90
11540;DHT22;5826;54.756;9.192;2024-01-30T05:09:57;7.30;99.90
11540;DHT22;5826;54.756;9.192;2024-01-30T05:12:22;7.30;99.90
11540;DHT22;5826;54.756;9.192;2024-01-30T05:14:47;7.20;99.90
11540;DHT22;5826;54.756;9.192;2024-01-30T05:17:13;7.20;99.90
11540;DHT22;5826;54.756;9.192;2024-01-30T05:19:40;7.20;99.90
11540;DHT22;5826;54.756;9.192;2024-01-30T05:22:05;7.20;99.90
11540;DHT22;5826;54.756;9.192;2024-01-30T05:24:31;7.20;99.90
11540;DHT22;5826;54.756;9.192;2024-01-30T05:26:57;7.20;99.90
11540;DHT22;5826;54.756;9.192;2024-01-30T05:29:22;7.20;99.90
11540;DHT22;5826;54.756;9.192;2024-01-30T05:31:48;7.20;99.90
11540;DHT22;5826;54.756;9.192;2024-01-30T05:34:14;7.10;99.90
11540;DHT22;5826;54.756;9.192;2024-01-30T05:36:39;7.10;99.90
11540;DHT22;5826;54.756;9.192;2024-01-30T05:39:05;7.10;99.90
11540;DHT22;5826;54.756;9.192;2024-01-30T05:41:30;7.10;99.90
11540;DHT22;5826;54.756;9.192;2024-01-30T05:43:56;7.10;99.90
11540;DHT22;5826;54.756;9.192;2024-01-30T05:46:21;7.10;99.90
11540;DHT22;5826;54.756;9.192;2024-01-30T05:48:47;7.10;99.90
11540;DHT22;5826;54.756;9.192;2024-01-30T05:51:13;7.10;99.90
11540;DHT22;5826;54.756;9.192;2024-01-30T05:53:38;7.00;99.90
11540;DHT22;5826;54.756;9.192;2024-01-30T05:56:04;7.00;99.90
11540;DHT22;5826;54.756;9.192;2024-01-30T05:58:30;7.00;99.90
11540;DHT22;5826;54.756;9.192;2024-01-30T06:00:56;7.00;99.90
11540;DHT22;5826;54.756;9.192;2024-01-30T06:03:23;7.00;99.90
11540;DHT22;5826;54.756;9.192;2024-01-30T06:05:48;7.00;99.90
11540;DHT22;5826;54.756;9.192;2024-01-30T06:08:13;6.90;99.90
11540;DHT22;5826;54.756;9.192;2024-01-30T06:10:39;6.90;99.90
11540;DHT22;5826;54.756;9.192;2024-01-30T06:13:05;6.90;99.90
11540;DHT22;5826;54.756;9.192;2024-01-30T06:15:31;6.90;99.90
11540;DHT22;5826;54.756;9.192;2024-01-30T06:17:58;6.90;99.90
11540;DHT22;5826;54.756;9.192;2024-01-30T06:20:23;6.90;99.90
11540;DHT22;5826;54.756;9.192;2024-01-30T06:22:49;6.90;99.90
11540;DHT22;5826;54.756;9.192;2024-01-30T06:25:14;6.90;99.90
11540;DHT22;5826;54.756;9.192;2024-01-30T06:27:41;6.90;99.90
11540;DHT22;5826;54.756;9.192;2024-01-30T06:30:07;6.90;99.90
11540;DHT22;5826;54.756;9.192;2024-01-30T06:32:32;6.90;99.90
11540;DHT22;5826;54.756;9.192;2024-01-30T06:35:00;6.80;99.90
11540;DHT22;5826;54.756;9.192;2024-01-30T06:37:26;6.80;99.90
11540;DHT22;5826;54.756;9.192;2024-01-30T06:39:51;6.80;99.90
11540;DHT22;5826;54.756;9.192;2024-01-30T06:42:18;6.80;99.90
11540;DHT22;5826;54.756;9.192;2024-01-30T06:44:43;6.90;99.90
11540;DHT22;5826;54.756;9.192;2024-01-30T06:47:09;6.90;99.90
11540;DHT22;5826;54.756;9.192;2024-01-30T06:49:35;6.90;99.90
11540;DHT22;5826;54.756;9.192;2024-01-30T06:52:06;6.90;99.90
11540;DHT22;5826;54.756;9.192;2024-01-30T06:54:32;6.80;99.90
11540;DHT22;5826;54.756;9.192;2024-01-30T06:56:58;6.80;99.90
11540;DHT22;5826;54.756;9.192;2024-01-30T06:59:24;6.80;99.90
11540;DHT22;5826;54.756;9.192;2024-01-30T07:01:49;6.80;99.90
11540;DHT22;5826;54.756;9.192;2024-01-30T07:04:15;6.80;99.90
11540;DHT22;5826;54.756;9.192;2024-01-30T07:06:41;6.80;99.90
11540;DHT22;5826;54.756;9.192;2024-01-30T07:09:06;6.80;99.90
11540;DHT22;5826;54.756;9.192;2024-01-30T07:11:32;6.80;99.90
11540;DHT22;5826;54.756;9.192;2024-01-30T07:13:57;6.80;99.90
11540;DHT22;5826;54.756;9.192;2024-01-30T07:16:23;6.80;99.90
11540;DHT22;5826;54.756;9.192;2024-01-30T07:18:49;6.80;99.90
11540;DHT22;5826;54.756;9.192;2024-01-30T07:21:15;6.80;99.90
11540;DHT22;5826;54.756;9.192;2024-01-30T07:23:41;6.80;99.90
11540;DHT22;5826;54.756;9.192;2024-01-30T07:26:08;6.80;99.90
11540;DHT22;5826;54.756;9.192;2024-01-30T07:28:34;6.80;99.90
11540;DHT22;5826;54.756;9.192;2024-01-30T07:31:01;6.80;99.90
11540;DHT22;5826;54.756;9.192;2024-01-30T07:33:27;6.80;99.90
11540;DHT22;5826;54.756;9.192;2024-01-30T07:35:53;6.80;99.90
11540;DHT22;5826;54.756;9.192;2024-01-30T07:38:19;6.80;99.90
11540;DHT22;5826;54.756;9.192;2024-01-30T07:40:44;6.80;99.90
11540;DHT22;5826;54.756;9.192;2024-01-30T07:43:10;6.80;99.90
11540;DHT22;5826;54.756;9.192;2024-01-30T07:45:35;6.80;99.90
11540;DHT22;5826;54.756;9.192;2024-01-30T07:48:02;6.80;99.90
11540;DHT22;5826;54.756;9.192;2024-01-30T07:50:28;6.90;99.90
11540;DHT22;5826;54.756;9.192;2024-01-30T07:52:55;6.90;99.90
11540;DHT22;5826;54.756;9.192;2024-01-30T07:55:21;6.90;99.90
11540;DHT22;5826;54.756;9.192;2024-01-30T07:57:52;6.90;99.90
11540;DHT22;5826;54.756;9.192;2024-01-30T08:00:19;6.90;99.90
11540;DHT22;5826;54.756;9.192;2024-01-30T08:02:45;6.90;99.90
11540;DHT22;5826;54.756;9.192;2024-01-30T08:05:13;6.90;99.90
11540;DHT22;5826;54.756;9.192;2024-01-30T08:07:41;7.00;99.90
11540;DHT22;5826;54.756;9.192;2024-01-30T08:10:07;7.00;99.90
11540;DHT22;5826;54.756;9.192;2024-01-30T08:12:33;7.00;99.90
11540;DHT22;5826;54.756;9.192;2024-01-30T08:14:58;7.00;99.90
11540;DHT22;5826;54.756;9.192;2024-01-30T08:17:24;7.00;99.90
11540;DHT22;5826;54.756;9.192;2024-01-30T08:19:49;7.00;99.90
11540;DHT22;5826;54.756;9.192;2024-01-30T08:22:15;7.10;99.90
11540;DHT22;5826;54.756;9.192;2024-01-30T08:24:41;7.10;99.90
11540;DHT22;5826;54.756;9.192;2024-01-30T08:27:07;7.10;99.90
11540;DHT22;5826;54.756;9.192;2024-01-30T08:29:35;7.10;99.90
11540;DHT22;5826;54.756;9.192;2024-01-30T08:32:00;7.10;99.90
11540;DHT22;5826;54.756;9.192;2024-01-30T08:34:26;7.10;99.90
11540;DHT22;5826;54.756;9.192;2024-01-30T08:36:51;7.10;99.90
11540;DHT22;5826;54.756;9.192;2024-01-30T08:39:17;7.20;99.90
11540;DHT22;5826;54.756;9.192;2024-01-30T08:41:42;7.20;99.90
11540;DHT22;5826;54.756;9.192;2024-01-30T08:44:08;7.20;99.90
11540;DHT22;5826;54.756;9.192;2024-01-30T08:46:36;7.20;99.90
11540;DHT22;5826;54.756;9.192;2024-01-30T08:49:01;7.30;99.90
11540;DHT22;5826;54.756;9.192;2024-01-30T08:51:28;7.20;99.90
11540;DHT22;5826;54.756;9.192;2024-01-30T08:53:53;7.30;99.90
11540;DHT22;5826;54.756;9.192;2024-01-30T08:56:19;7.30;99.90
11540;DHT22;5826;54.756;9.192;2024-01-30T08:58:44;7.30;99.90
11540;DHT22;5826;54.756;9.192;2024-01-30T09:01:10;7.30;99.90
11540;DHT22;5826;54.756;9.192;2024-01-30T09:03:35;7.30;99.90
11540;DHT22;5826;54.756;9.192;2024-01-30T09:06:08;8.80;99.90
11540;DHT22;5826;54.756;9.192;2024-01-30T09:08:34;7.40;99.90
11540;DHT22;5826;54.756;9.192;2024-01-30T09:10:59;7.50;99.90
11540;DHT22;5826;54.756;9.192;2024-01-30T09:13:25;7.50;99.90
11540;DHT22;5826;54.756;9.192;2024-01-30T09:15:50;7.50;99.90
11540;DHT22;5826;54.756;9.192;2024-01-30T09:18:16;7.60;99.90
11540;DHT22;5826;54.756;9.192;2024-01-30T09:20:41;7.60;99.90
11540;DHT22;5826;54.756;9.192;2024-01-30T09:23:07;7.70;99.90
11540;DHT22;5826;54.756;9.192;2024-01-30T09:25:33;7.70;99.90
11540;DHT22;5826;54.756;9.192;2024-01-30T09:27:59;7.80;99.90
11540;DHT22;5826;54.756;9.192;2024-01-30T09:30:25;7.80;99.90
11540;DHT22;5826;54.756;9.192;2024-01-30T09:32:50;7.90;99.90
11540;DHT22;5826;54.756;9.192;2024-01-30T09:35:15;7.90;99.90
11540;DHT22;5826;54.756;9.192;2024-01-30T09:37:44;7.90;99.90
11540;DHT22;5826;54.756;9.192;2024-01-30T09:40:10;7.90;99.90
11540;DHT22;5826;54.756;9.192;2024-01-30T09:42:36;7.90;99.90
11540;DHT22;5826;54.756;9.192;2024-01-30T09:45:02;8.00;99.90
11540;DHT22;5826;54.756;9.192;2024-01-30T09:47:40;8.00;99.90
11540;DHT22;5826;54.756;9.192;2024-01-30T09:50:08;8.00;99.90
11540;DHT22;5826;54.756;9.192;2024-01-30T09:52:34;8.00;99.90
11540;DHT22;5826;54.756;9.192;2024-01-30T09:55:00;8.00;99.90
11540;DHT22;5826;54.756;9.192;2024-01-30T09:57:26;8.00;99.90
11540;DHT22;5826;54.756;9.192;2024-01-30T09:59:52;8.10;99.90
11540;DHT22;5826;54.756;9.192;2024-01-30T10:02:22;8.00;99.90
11540;DHT22;5826;54.756;9.192;2024-01-30T10:04:49;8.00;99.90
11540;DHT22;5826;54.756;9.192;2024-01-30T10:07:15;8.00;99.90
11540;DHT22;5826;54.756;9.192;2024-01-30T10:09:41;8.00;99.90
11540;DHT22;5826;54.756;9.192;2024-01-30T10:12:07;7.90;99.90
11540;DHT22;5826;54.756;9.192;2024-01-30T10:14:34;7.90;99.90
11540;DHT22;5826;54.756;9.192;2024-01-30T10:17:00;7.90;99.90
11540;DHT22;5826;54.756;9.192;2024-01-30T10:19:26;8.00;99.90
11540;DHT22;5826;54.756;9.192;2024-01-30T10:21:52;8.00;99.90
11540;DHT22;5826;54.756;9.192;2024-01-30T10:24:17;8.00;99.90
11540;DHT22;5826;54.756;9.192;2024-01-30T10:26:46;8.00;99.90
11540;DHT22;5826;54.756;9.192;2024-01-30T10:29:12;8.00;99.90
11540;DHT22;5826;54.756;9.192;2024-01-30T10:31:37;8.00;99.90
11540;DHT22;5826;54.756;9.192;2024-01-30T10:34:03;8.10;99.90
11540;DHT22;5826;54.756;9.192;2024-01-30T10:36:29;8.00;99.90
11540;DHT22;5826;54.756;9.192;2024-01-30T10:38:59;8.10;99.90
11540;DHT22;5826;54.756;9.192;2024-01-30T10:41:31;8.10;99.90
11540;DHT22;5826;54.756;9.192;2024-01-30T10:44:05;8.10;99.90
11540;DHT22;5826;54.756;9.192;2024-01-30T10:46:33;8.20;99.90
11540;DHT22;5826;54.756;9.192;2024-01-30T10:49:00;8.20;99.90
11540;DHT22;5826;54.756;9.192;2024-01-30T10:51:31;8.30;99.90
11540;DHT22;5826;54.756;9.192;2024-01-30T10:53:57;8.30;99.90
11540;DHT22;5826;54.756;9.192;2024-01-30T10:56:23;8.30;99.90
11540;DHT22;5826;54.756;9.192;2024-01-30T10:58:50;8.30;99.90
11540;DHT22;5826;54.756;9.192;2024-01-30T11:01:19;8.30;99.90
11540;DHT22;5826;54.756;9.192;2024-01-30T11:03:45;8.30;99.90
11540;DHT22;5826;54.756;9.192;2024-01-30T11:06:11;8.50;99.90
11540;DHT22;5826;54.756;9.192;2024-01-30T11:08:44;8.50;99.90
11540;DHT22;5826;54.756;9.192;2024-01-30T11:11:10;8.50;99.90
11540;DHT22;5826;54.756;9.192;2024-01-30T11:13:36;8.50;99.90
11540;DHT22;5826;54.756;9.192;2024-01-30T11:16:02;8.60;99.90
11540;DHT22;5826;54.756;9.192;2024-01-30T11:18:32;8.60;99.90
11540;DHT22;5826;54.756;9.192;2024-01-30T11:20:58;8.60;99.90
11540;DHT22;5826;54.756;9.192;2024-01-30T11:23:27;8.70;99.90
11540;DHT22;5826;54.756;9.192;2024-01-30T11:25:54;8.80;99.90
11540;DHT22;5826;54.756;9.192;2024-01-30T11:28:21;8.80;99.90
11540;DHT22;5826;54.756;9.192;2024-01-30T11:30:47;8.80;99.90
11540;DHT22;5826;54.756;9.192;2024-01-30T11:33:26;8.90;99.90
11540;DHT22;5826;54.756;9.192;2024-01-30T11:35:52;8.80;99.90
11540;DHT22;5826;54.756;9.192;2024-01-30T11:38:18;8.70;99.90
11540;DHT22;5826;54.756;9.192;2024-01-30T11:40:44;8.60;99.90
11540;DHT22;5826;54.756;9.192;2024-01-30T11:43:09;8.60;99.90
11540;DHT22;5826;54.756;9.192;2024-01-30T11:45:36;8.70;99.90
11540;DHT22;5826;54.756;9.192;2024-01-30T11:48:02;8.70;99.90
11540;DHT22;5826;54.756;9.192;2024-01-30T11:50:33;8.60;99.90
11540;DHT22;5826;54.756;9.192;2024-01-30T11:53:02;8.70;99.90
11540;DHT22;5826;54.756;9.192;2024-01-30T11:55:29;8.70;99.90
11540;DHT22;5826;54.756;9.192;2024-01-30T11:57:56;8.70;99.90
11540;DHT22;5826;54.756;9.192;2024-01-30T12:00:23;8.70;99.90
11540;DHT22;5826;54.756;9.192;2024-01-30T12:02:50;8.70;99.90
11540;DHT22;5826;54.756;9.192;2024-01-30T12:05:16;8.70;99.90
11540;DHT22;5826;54.756;9.192;2024-01-30T12:07:44;8.80;99.90
11540;DHT22;5826;54.756;9.192;2024-01-30T12:10:10;8.80;99.90
11540;DHT22;5826;54.756;9.192;2024-01-30T12:12:36;8.80;99.90
11540;DHT22;5826;54.756;9.192;2024-01-30T12:15:02;8.80;99.90
11540;DHT22;5826;54.756;9.192;2024-01-30T12:17:32;8.70;99.90
11540;DHT22;5826;54.756;9.192;2024-01-30T12:20:07;8.70;99.90
11540;DHT22;5826;54.756;9.192;2024-01-30T12:22:37;8.70;99.90
11540;DHT22;5826;54.756;9.192;2024-01-30T12:25:08;8.70;99.90
11540;DHT22;5826;54.756;9.192;2024-01-30T12:27:33;8.70;99.90
11540;DHT22;5826;54.756;9.192;2024-01-30T12:29:59;8.70;99.90
11540;DHT22;5826;54.756;9.192;2024-01-30T12:32:25;8.70;99.90
11540;DHT22;5826;54.756;9.192;2024-01-30T12:34:50;8.70;99.90
11540;DHT22;5826;54.756;9.192;2024-01-30T12:37:16;8.70;99.90
11540;DHT22;5826;54.756;9.192;2024-01-30T12:39:48;8.70;99.90
11540;DHT22;5826;54.756;9.192;2024-01-30T12:42:14;8.70;99.90
11540;DHT22;5826;54.756;9.192;2024-01-30T12:44:40;8.70;99.90
11540;DHT22;5826;54.756;9.192;2024-01-30T12:47:08;8.70;99.90
11540;DHT22;5826;54.756;9.192;2024-01-30T12:49:33;8.70;99.90
11540;DHT22;5826;54.756;9.192;2024-01-30T12:51:59;8.70;99.90
11540;DHT22;5826;54.756;9.192;2024-01-30T12:54:24;8.70;99.90
11540;DHT22;5826;54.756;9.192;2024-01-30T12:56:50;8.70;99.90
11540;DHT22;5826;54.756;9.192;2024-01-30T12:59:15;8.70;99.90
11540;DHT22;5826;54.756;9.192;2024-01-30T13:01:41;8.70;99.90
11540;DHT22;5826;54.756;9.192;2024-01-30T13:04:07;8.70;99.90
11540;DHT22;5826;54.756;9.192;2024-01-30T13:06:32;8.70;99.90
11540;DHT22;5826;54.756;9.192;2024-01-30T13:08:58;8.70;99.90
11540;DHT22;5826;54.756;9.192;2024-01-30T13:11:23;8.70;99.90
11540;DHT22;5826;54.756;9.192;2024-01-30T13:13:50;8.70;99.90
11540;DHT22;5826;54.756;9.192;2024-01-30T13:16:16;8.70;99.90
11540;DHT22;5826;54.756;9.192;2024-01-30T13:18:41;8.70;99.90
11540;DHT22;5826;54.756;9.192;2024-01-30T13:21:07;8.70;99.90
11540;DHT22;5826;54.756;9.192;2024-01-30T13:23:32;8.70;99.90
11540;DHT22;5826;54.756;9.192;2024-01-30T13:25:58;8.70;99.90
11540;DHT22;5826;54.756;9.192;2024-01-30T13:28:24;8.80;99.90
11540;DHT22;5826;54.756;9.192;2024-01-30T13:30:51;8.80;99.90
11540;DHT22;5826;54.756;9.192;2024-01-30T13:33:16;8.80;99.90
11540;DHT22;5826;54.756;9.192;2024-01-30T13:35:42;8.80;99.90
11540;DHT22;5826;54.756;9.192;2024-01-30T13:38:08;8.90;99.90
11540;DHT22;5826;54.756;9.192;2024-01-30T13:40:33;8.90;99.90
11540;DHT22;5826;54.756;9.192;2024-01-30T13:42:59;8.90;99.90
11540;DHT22;5826;54.756;9.192;2024-01-30T13:45:24;8.90;99.90
11540;DHT22;5826;54.756;9.192;2024-01-30T13:47:50;9.00;99.90
11540;DHT22;5826;54.756;9.192;2024-01-30T13:50:15;9.00;99.90
11540;DHT22;5826;54.756;9.192;2024-01-30T13:52:42;9.00;99.90
11540;DHT22;5826;54.756;9.192;2024-01-30T13:55:09;9.10;99.90
11540;DHT22;5826;54.756;9.192;2024-01-30T13:57:35;9.10;99.90
11540;DHT22;5826;54.756;9.192;2024-01-30T14:00:02;9.10;99.90
11540;DHT22;5826;54.756;9.192;2024-01-30T14:02:30;9.20;99.90
11540;DHT22;5826;54.756;9.192;2024-01-30T14:04:56;9.20;99.90
11540;DHT22;5826;54.756;9.192;2024-01-30T14:07:21;9.20;99.90
11540;DHT22;5826;54.756;9.192;2024-01-30T14:09:48;9.10;99.90
11540;DHT22;5826;54.756;9.192;2024-01-30T14:12:13;9.10;99.90
11540;DHT22;5826;54.756;9.192;2024-01-30T14:14:39;9.10;99.90
11540;DHT22;5826;54.756;9.192;2024-01-30T14:17:05;9.10;99.90
11540;DHT22;5826;54.756;9.192;2024-01-30T14:19:35;9.00;99.90
11540;DHT22;5826;54.756;9.192;2024-01-30T14:22:04;9.00;99.90
11540;DHT22;5826;54.756;9.192;2024-01-30T14:24:29;9.00;99.90
11540;DHT22;5826;54.756;9.192;2024-01-30T14:26:55;9.00;99.90
11540;DHT22;5826;54.756;9.192;2024-01-30T14:29:20;9.00;99.90
11540;DHT22;5826;54.756;9.192;2024-01-30T14:31:46;9.00;99.90
11540;DHT22;5826;54.756;9.192;2024-01-30T14:34:11;8.90;99.90
11540;DHT22;5826;54.756;9.192;2024-01-30T14:36:38;8.90;99.90
11540;DHT22;5826;54.756;9.192;2024-01-30T14:39:03;8.90;99.90
11540;DHT22;5826;54.756;9.192;2024-01-30T14:41:29;8.90;99.90
11540;DHT22;5826;54.756;9.192;2024-01-30T14:43:55;8.90;99.90
11540;DHT22;5826;54.756;9.192;2024-01-30T14:46:21;8.90;99.90
11540;DHT22;5826;54.756;9.192;2024-01-30T14:48:47;8.80;99.90
11540;DHT22;5826;54.756;9.192;2024-01-30T14:51:13;8.80;99.90
11540;DHT22;5826;54.756;9.192;2024-01-30T14:53:39;8.80;99.90
11540;DHT22;5826;54.756;9.192;2024-01-30T14:56:05;8.80;99.90
11540;DHT22;5826;54.756;9.192;2024-01-30T14:58:30;8.80;99.90
11540;DHT22;5826;54.756;9.192;2024-01-30T15:00:56;8.70;99.90
11540;DHT22;5826;54.756;9.192;2024-01-30T15:03:21;8.70;99.90
11540;DHT22;5826;54.756;9.192;2024-01-30T15:05:47;8.70;99.90
11540;DHT22;5826;54.756;9.192;2024-01-30T15:08:13;8.70;99.90
11540;DHT22;5826;54.756;9.192;2024-01-30T15:10:38;8.70;99.90
11540;DHT22;5826;54.756;9.192;2024-01-30T15:13:04;8.70;99.90
11540;DHT22;5826;54.756;9.192;2024-01-30T15:15:29;8.70;99.90
11540;DHT22;5826;54.756;9.192;2024-01-30T15:17:56;8.70;99.90
11540;DHT22;5826;54.756;9.192;2024-01-30T15:20:21;8.70;99.90
11540;DHT22;5826;54.756;9.192;2024-01-30T15:22:47;8.70;99.90
11540;DHT22;5826;54.756;9.192;2024-01-30T15:25:13;8.60;99.90
11540;DHT22;5826;54.756;9.192;2024-01-30T15:27:39;8.60;99.90
11540;DHT22;5826;54.756;9.192;2024-01-30T15:30:05;8.50;99.90
11540;DHT22;5826;54.756;9.192;2024-01-30T15:32:31;8.40;99.90
11540;DHT22;5826;54.756;9.192;2024-01-30T15:34:57;8.40;99.90
11540;DHT22;5826;54.756;9.192;2024-01-30T15:37:26;8.40;99.90
11540;DHT22;5826;54.756;9.192;2024-01-30T15:39:52;8.40;99.90
11540;DHT22;5826;54.756;9.192;2024-01-30T15:42:18;8.40;99.90
11540;DHT22;5826;54.756;9.192;2024-01-30T15:44:43;8.40;99.90
11540;DHT22;5826;54.756;9.192;2024-01-30T15:47:09;8.30;99.90
11540;DHT22;5826;54.756;9.192;2024-01-30T15:49:34;8.30;99.90
11540;DHT22;5826;54.756;9.192;2024-01-30T15:52:00;8.30;99.90
11540;DHT22;5826;54.756;9.192;2024-01-30T15:54:25;8.30;99.90